sensor_id;sensor_type;location;lat;lon;timestamp;pressure;altitude;pressure_sealevel;temperature;humidity
76331;BME280;65148;51.912;15.570;2023-07-31T00:00:45;101140.64;;;17.71;100.00
76331;BME280;65148;51.912;15.570;2023-07-31T00:15:47;101138.02;;;17.49;100.00
76331;BME280;65148;51.912;15.570;2023-07-31T00:31:05;101146.65;;;16.99;100.00
76331;BME280;65148;51.912;15.570;2023-07-31T00:46:06;101132.27;;;17.02;100.00
76331;BME280;65148;51.912;15.570;2023-07-31T01:01:08;101138.67;;;16.81;100.00
76331;BME280;65148;51.912;15.570;2023-07-31T01:16:09;101118.17;;;16.56;100.00
76331;BME280;65148;51.912;15.570;2023-07-31T01:31:29;101112.38;;;16.26;100.00
76331;BME280;65148;51.912;15.570;2023-07-31T01:46:30;101109.94;;;16.25;100.00
76331;BME280;65148;51.912;15.570;2023-07-31T02:01:31;101102.30;;;15.91;100.00
76331;BME280;65148;51.912;15.570;2023-07-31T02:16:32;101084.83;;;16.09;100.00
76331;BME280;65148;51.912;15.570;2023-07-31T02:31:50;101079.78;;;15.80;100.00
76331;BME280;65148;51.912;15.570;2023-07-31T02:46:51;101091.17;;;15.65;100.00
76331;BME280;65148;51.912;15.570;2023-07-31T03:01:52;101083.80;;;15.38;100.00
76331;BME280;65148;51.912;15.570;2023-07-31T03:16:53;101067.34;;;15.38;100.00
76331;BME280;65148;51.912;15.570;2023-07-31T03:32:13;101079.30;;;15.20;100.00
76331;BME280;65148;51.912;15.570;2023-07-31T03:47:14;101068.46;;;15.37;100.00
76331;BME280;65148;51.912;15.570;2023-07-31T04:02:15;101064.55;;;15.52;100.00
76331;BME280;65148;51.912;15.570;2023-07-31T04:17:19;101061.90;;;15.60;100.00
76331;BME280;65148;51.912;15.570;2023-07-31T04:32:36;101052.48;;;15.75;100.00
76331;BME280;65148;51.912;15.570;2023-07-31T04:47:37;101043.09;;;15.98;100.00
76331;BME280;65148;51.912;15.570;2023-07-31T05:02:38;101037.18;;;16.14;100.00
76331;BME280;65148;51.912;15.570;2023-07-31T05:17:39;101027.00;;;16.54;100.00
76331;BME280;65148;51.912;15.570;2023-07-31T05:32:59;101025.21;;;16.58;100.00
76331;BME280;65148;51.912;15.570;2023-07-31T05:48:00;101023.51;;;16.88;100.00
76331;BME280;65148;51.912;15.570;2023-07-31T06:03:01;101017.70;;;17.32;100.00
76331;BME280;65148;51.912;15.570;2023-07-31T06:18:02;101015.26;;;17.65;100.00
76331;BME280;65148;51.912;15.570;2023-07-31T06:33:22;101015.40;;;17.77;100.00
76331;BME280;65148;51.912;15.570;2023-07-31T06:48:23;101024.45;;;17.86;100.00
76331;BME280;65148;51.912;15.570;2023-07-31T07:03:24;101025.30;;;17.70;100.00
76331;BME280;65148;51.912;15.570;2023-07-31T07:18:25;101019.30;;;17.59;100.00
76331;BME280;65148;51.912;15.570;2023-07-31T07:33:44;101012.70;;;17.51;100.00
76331;BME280;65148;51.912;15.570;2023-07-31T07:48:45;101000.21;;;17.45;100.00
76331;BME280;65148;51.912;15.570;2023-07-31T08:03:49;100996.80;;;17.66;100.00
76331;BME280;65148;51.912;15.570;2023-07-31T08:18:50;101005.71;;;17.45;100.00
76331;BME280;65148;51.912;15.570;2023-07-31T08:34:06;101017.41;;;17.08;100.00
76331;BME280;65148;51.912;15.570;2023-07-31T08:49:07;100999.11;;;16.95;100.00
76331;BME280;65148;51.912;15.570;2023-07-31T09:04:12;100994.91;;;17.06;100.00
76331;BME280;65148;51.912;15.570;2023-07-31T09:19:14;100991.18;;;16.76;100.00
76331;BME280;65148;51.912;15.570;2023-07-31T09:34:38;100990.20;;;16.89;100.00
76331;BME280;65148;51.912;15.570;2023-07-31T09:49:45;100971.57;;;17.38;100.00
76331;BME280;65148;51.912;15.570;2023-07-31T10:04:49;100970.55;;;17.60;100.00
76331;BME280;65148;51.912;15.570;2023-07-31T10:20:10;100942.98;;;17.77;100.00
76331;BME280;65148;51.912;15.570;2023-07-31T10:35:12;100932.19;;;18.31;100.00
76331;BME280;65148;51.912;15.570;2023-07-31T10:50:21;100925.67;;;18.65;100.00
76331;BME280;65148;51.912;15.570;2023-07-31T11:06:01;100897.22;;;19.39;100.00
76331;BME280;65148;51.912;15.570;2023-07-31T11:21:03;100889.47;;;20.38;100.00
76331;BME280;65148;51.912;15.570;2023-07-31T11:36:04;100872.13;;;20.65;100.00
76331;BME280;65148;51.912;15.570;2023-07-31T11:51:27;100873.16;;;20.89;100.00
76331;BME280;65148;51.912;15.570;2023-07-31T12:06:36;100861.44;;;21.07;96.16
76331;BME280;65148;51.912;15.570;2023-07-31T12:21:37;100868.02;;;21.78;93.64
76331;BME280;65148;51.912;15.570;2023-07-31T12:37:06;100837.15;;;22.11;80.81
76331;BME280;65148;51.912;15.570;2023-07-31T12:52:07;100823.88;;;21.69;79.78
76331;BME280;65148;51.912;15.570;2023-07-31T13:07:08;100822.48;;;22.10;81.11
76331;BME280;65148;51.912;15.570;2023-07-31T13:26:51;100808.27;;;22.31;80.03
76331;BME280;65148;51.912;15.570;2023-07-31T13:41:52;100791.07;;;22.80;76.79
76331;BME280;65148;51.912;15.570;2023-07-31T13:56:54;100793.96;;;22.87;75.02
76331;BME280;65148;51.912;15.570;2023-07-31T14:12:13;100788.26;;;22.61;76.56
76331;BME280;65148;51.912;15.570;2023-07-31T14:27:14;100788.35;;;22.45;78.72
76331;BME280;65148;51.912;15.570;2023-07-31T14:42:14;100784.11;;;22.32;73.37
76331;BME280;65148;51.912;15.570;2023-07-31T14:57:18;100772.59;;;22.49;71.10
76331;BME280;65148;51.912;15.570;2023-07-31T15:12:34;100744.02;;;22.68;75.59
76331;BME280;65148;51.912;15.570;2023-07-31T15:27:35;100745.53;;;23.07;69.34
76331;BME280;65148;51.912;15.570;2023-07-31T15:42:36;100717.77;;;22.84;70.57
76331;BME280;65148;51.912;15.570;2023-07-31T15:57:41;100706.80;;;22.91;72.44
76331;BME280;65148;51.912;15.570;2023-07-31T16:12:55;100711.84;;;22.44;73.61
76331;BME280;65148;51.912;15.570;2023-07-31T16:27:56;100698.90;;;22.51;73.85
76331;BME280;65148;51.912;15.570;2023-07-31T16:42:57;100683.02;;;22.48;74.88
76331;BME280;65148;51.912;15.570;2023-07-31T16:57:58;100684.41;;;22.39;75.20
76331;BME280;65148;51.912;15.570;2023-07-31T17:13:16;100681.93;;;22.34;77.75
76331;BME280;65148;51.912;15.570;2023-07-31T17:28:17;100701.20;;;22.07;77.73
76331;BME280;65148;51.912;15.570;2023-07-31T17:43:18;100680.43;;;22.17;78.14
76331;BME280;65148;51.912;15.570;2023-07-31T17:58:19;100658.61;;;22.15;83.72
76331;BME280;65148;51.912;15.570;2023-07-31T18:13:38;100635.45;;;21.89;88.17
76331;BME280;65148;51.912;15.570;2023-07-31T18:28:39;100632.33;;;21.71;90.51
76331;BME280;65148;51.912;15.570;2023-07-31T18:43:39;100630.41;;;21.56;89.73
76331;BME280;65148;51.912;15.570;2023-07-31T18:58:40;100613.41;;;21.38;88.57
76331;BME280;65148;51.912;15.570;2023-07-31T19:13:59;100627.55;;;21.17;85.41
76331;BME280;65148;51.912;15.570;2023-07-31T19:29:00;100625.35;;;21.42;82.04
76331;BME280;65148;51.912;15.570;2023-07-31T19:44:01;100611.23;;;21.47;81.19
76331;BME280;65148;51.912;15.570;2023-07-31T19:59:02;100607.44;;;21.36;80.35
76331;BME280;65148;51.912;15.570;2023-07-31T20:14:21;100597.09;;;21.17;79.80
76331;BME280;65148;51.912;15.570;2023-07-31T20:29:22;100583.05;;;21.41;79.66
76331;BME280;65148;51.912;15.570;2023-07-31T20:44:23;100562.45;;;21.23;80.41
76331;BME280;65148;51.912;15.570;2023-07-31T20:59:24;100535.48;;;21.20;81.09
76331;BME280;65148;51.912;15.570;2023-07-31T21:14:42;100517.15;;;20.96;83.33
76331;BME280;65148;51.912;15.570;2023-07-31T21:29:44;100490.77;;;20.83;84.65
76331;BME280;65148;51.912;15.570;2023-07-31T21:44:45;100482.94;;;20.69;86.33
76331;BME280;65148;51.912;15.570;2023-07-31T21:59:46;100462.83;;;20.53;88.07
76331;BME280;65148;51.912;15.570;2023-07-31T22:15:05;100460.17;;;20.41;90.00
76331;BME280;65148;51.912;15.570;2023-07-31T22:30:07;100444.38;;;20.42;88.51
76331;BME280;65148;51.912;15.570;2023-07-31T22:45:08;100413.43;;;20.36;90.35
76331;BME280;65148;51.912;15.570;2023-07-31T23:00:11;100421.98;;;20.31;91.93
76331;BME280;65148;51.912;15.570;2023-07-31T23:15:26;100410.94;;;20.15;97.65
76331;BME280;65148;51.912;15.570;2023-07-31T23:30:27;100388.38;;;20.13;98.66
76331;BME280;65148;51.912;15.570;2023-07-31T23:45:28;100355.33;;;20.01;100.00
